createdAt,value
2022-11-22T00:01:28.971Z,-84
2022-11-22T00:03:57.765Z,-87
2022-11-22T00:06:30.661Z,-88
2022-11-22T00:08:59.436Z,-89
2022-11-22T00:11:28.165Z,-89
2022-11-22T00:13:56.909Z,-89
2022-11-22T00:16:25.630Z,-89
2022-11-22T00:18:54.343Z,-89
2022-11-22T00:21:23.197Z,-89
2022-11-22T00:23:58.181Z,-89
2022-11-22T00:26:27.034Z,-90
2022-11-22T00:28:55.792Z,-90
2022-11-22T00:31:24.901Z,-89
2022-11-22T00:33:53.695Z,-89
2022-11-22T00:36:22.488Z,-89
2022-11-22T00:38:53.010Z,-89
2022-11-22T00:41:21.747Z,-90
2022-11-22T00:43:50.519Z,-89
2022-11-22T00:46:19.507Z,-89
2022-11-22T00:48:48.355Z,-88
2022-11-22T00:51:17.267Z,-88
2022-11-22T00:53:46.238Z,-88
2022-11-22T00:56:16.525Z,-88
2022-11-22T00:58:45.385Z,-88
2022-11-22T01:01:14.187Z,-89
2022-11-22T01:03:43.065Z,-89
2022-11-22T01:06:12.063Z,-88
2022-11-22T01:08:40.722Z,-89
2022-11-22T01:11:09.724Z,-89
2022-11-22T01:13:40.042Z,-89
2022-11-22T01:16:12.039Z,-90
2022-11-22T01:18:40.997Z,-90
2022-11-22T01:21:10.277Z,-90
2022-11-22T01:23:39.891Z,-90
2022-11-22T01:26:09.696Z,-89
2022-11-22T01:28:39.886Z,-89
2022-11-22T01:31:08.595Z,-89
2022-11-22T01:33:37.446Z,-89
2022-11-22T01:36:06.789Z,-90
2022-11-22T01:38:35.920Z,-89
2022-11-22T01:41:04.714Z,-90
2022-11-22T01:43:33.374Z,-90
2022-11-22T01:46:07.695Z,-89
2022-11-22T01:48:51.806Z,-90
2022-11-22T01:51:29.764Z,-90
2022-11-22T01:54:02.743Z,-90
2022-11-22T01:56:33.723Z,-90
2022-11-22T01:59:09.648Z,-90
2022-11-22T02:01:39.941Z,-90
2022-11-22T02:04:15.389Z,-90
2022-11-22T02:06:53.058Z,-90
2022-11-22T02:09:24.563Z,-90
2022-11-22T02:11:57.250Z,-90
2022-11-22T02:14:28.889Z,-89
2022-11-22T02:16:59.237Z,-91
2022-11-22T02:19:43.074Z,-91
2022-11-22T02:22:26.535Z,-91
2022-11-22T02:25:04.634Z,-89
2022-11-22T02:27:35.006Z,-89
2022-11-22T02:30:03.822Z,-89
2022-11-22T02:32:32.647Z,-91
2022-11-22T02:35:01.574Z,-91
2022-11-22T02:37:34.340Z,-91
2022-11-22T02:40:08.968Z,-91
2022-11-22T02:42:39.607Z,-90
2022-11-22T02:45:09.646Z,-89
2022-11-22T02:47:38.352Z,-90
2022-11-22T02:50:08.498Z,-89
2022-11-22T02:52:37.473Z,-90
2022-11-22T02:55:07.146Z,-89
2022-11-22T02:57:35.939Z,-88
2022-11-22T03:00:08.359Z,-89
2022-11-22T03:02:37.349Z,-88
2022-11-22T03:05:06.850Z,-91
2022-11-22T03:07:36.146Z,-91
2022-11-22T03:10:05.634Z,-91
2022-11-22T03:12:34.498Z,-91
2022-11-22T03:15:03.389Z,-91
2022-11-22T03:17:33.540Z,-91
2022-11-22T03:20:02.531Z,-92
2022-11-22T03:22:31.286Z,-91
2022-11-22T03:25:00.086Z,-92
2022-11-22T03:27:28.853Z,-91
2022-11-22T03:29:57.619Z,-91
2022-11-22T03:32:26.392Z,-91
2022-11-22T03:34:56.598Z,-92
2022-11-22T03:37:25.435Z,-92
2022-11-22T03:39:54.282Z,-91
2022-11-22T03:42:23.133Z,-92
2022-11-22T03:44:51.839Z,-92
2022-11-22T03:47:20.857Z,-92
2022-11-22T03:49:49.742Z,-91
2022-11-22T03:52:19.935Z,-92
2022-11-22T03:54:48.975Z,-92
2022-11-22T03:57:18.300Z,-92
2022-11-22T03:59:47.127Z,-92
2022-11-22T04:02:17.165Z,-92
2022-11-22T04:04:46.099Z,-92
2022-11-22T04:07:14.967Z,-92
2022-11-22T04:09:45.260Z,-92
2022-11-22T04:12:13.935Z,-92
2022-11-22T04:15:00.158Z,-92
2022-11-22T04:17:45.203Z,-92
2022-11-22T04:20:35.762Z,-92
2022-11-22T04:23:07.423Z,-92
2022-11-22T04:25:39.228Z,-92
2022-11-22T04:28:10.241Z,-92
2022-11-22T04:30:56.886Z,-92
2022-11-22T04:33:26.980Z,-92
2022-11-22T04:35:56.140Z,-92
2022-11-22T04:38:25.469Z,-92
2022-11-22T04:40:55.973Z,-92
2022-11-22T04:43:44.991Z,-92
2022-11-22T04:46:16.300Z,-92
2022-11-22T04:48:45.170Z,-92
2022-11-22T04:51:33.548Z,-92
2022-11-22T04:54:02.583Z,-92
2022-11-22T04:56:32.967Z,-92
2022-11-22T04:59:01.986Z,-92
2022-11-22T05:01:30.826Z,-92
2022-11-22T05:03:59.704Z,-92
2022-11-22T05:06:28.391Z,-92
2022-11-22T05:08:57.356Z,-92
2022-11-22T05:11:26.554Z,-92
2022-11-22T05:13:56.804Z,-92
2022-11-22T05:16:25.556Z,-92
2022-11-22T05:19:00.271Z,-92
2022-11-22T05:21:30.992Z,-92
2022-11-22T05:23:58.653Z,-92
2022-11-22T05:26:30.996Z,-91
2022-11-22T05:29:06.054Z,-93
2022-11-22T05:31:37.480Z,-92
2022-11-22T05:34:06.447Z,-92
2022-11-22T05:36:37.067Z,-92
2022-11-22T05:39:06.645Z,-92
2022-11-22T05:41:35.457Z,-92
2022-11-22T05:44:05.763Z,-92
2022-11-22T05:46:34.541Z,-91
2022-11-22T05:49:03.253Z,-91
2022-11-22T05:51:34.535Z,-92
2022-11-22T05:54:04.088Z,-92
2022-11-22T05:56:32.983Z,-91
2022-11-22T05:59:01.668Z,-92
2022-11-22T06:01:31.974Z,-92
2022-11-22T06:04:00.625Z,-92
2022-11-22T06:06:29.562Z,-92
2022-11-22T06:08:59.675Z,-92
2022-11-22T06:11:29.662Z,-92
2022-11-22T06:14:03.347Z,-91
2022-11-22T06:16:33.759Z,-91
2022-11-22T06:19:02.552Z,-91
2022-11-22T06:21:31.442Z,-91
2022-11-22T06:24:00.275Z,-92
2022-11-22T06:26:30.759Z,-92
2022-11-22T06:29:01.252Z,-92
2022-11-22T06:31:30.572Z,-91
2022-11-22T06:34:02.295Z,-92
2022-11-22T06:36:33.685Z,-92
2022-11-22T06:39:04.012Z,-92
2022-11-22T06:41:36.616Z,-92
2022-11-22T06:44:08.433Z,-92
2022-11-22T06:46:39.139Z,-92
2022-11-22T06:49:09.462Z,-91
2022-11-22T06:51:38.272Z,-92
2022-11-22T06:54:07.382Z,-93
2022-11-22T07:08:06.616Z,-86
2022-11-22T07:10:39.193Z,-86
2022-11-22T07:13:10.219Z,-87
2022-11-22T07:15:38.841Z,-86
2022-11-22T07:18:09.825Z,-87
2022-11-22T07:20:39.851Z,-87
2022-11-22T07:23:10.624Z,-89
2022-11-22T07:25:39.172Z,-86
2022-11-22T07:28:07.707Z,-86
2022-11-22T07:30:39.880Z,-86
2022-11-22T07:33:12.461Z,-88
2022-11-22T07:36:34.979Z,-86
2022-11-22T07:39:05.331Z,-89
2022-11-22T07:41:33.970Z,-88
2022-11-22T07:44:02.789Z,-86
2022-11-22T07:46:33.245Z,-87
2022-11-22T07:49:03.602Z,-86
2022-11-22T07:51:33.633Z,-86
2022-11-22T07:54:02.210Z,-86
2022-11-22T07:56:32.462Z,-87
2022-11-22T07:59:01.303Z,-86
2022-11-22T08:01:29.882Z,-86
2022-11-22T08:03:58.529Z,-86
2022-11-22T08:06:27.809Z,-87
2022-11-22T08:09:02.028Z,-86
2022-11-22T08:11:30.977Z,-87
2022-11-22T08:13:59.506Z,-85
2022-11-22T08:16:28.054Z,-86
2022-11-22T08:18:57.278Z,-87
2022-11-22T08:21:26.097Z,-88
2022-11-22T08:24:00.567Z,-88
2022-11-22T08:26:29.080Z,-89
2022-11-22T08:28:57.564Z,-88
2022-11-22T08:31:27.241Z,-88
2022-11-22T08:33:55.804Z,-88
2022-11-22T08:36:24.779Z,-87
2022-11-22T08:38:53.304Z,-88
2022-11-22T08:41:23.988Z,-88
2022-11-22T08:43:53.963Z,-88
2022-11-22T08:46:22.626Z,-88
2022-11-22T08:48:54.316Z,-88
2022-11-22T08:56:06.866Z,-91
2022-11-22T08:58:39.629Z,-92
2022-11-22T09:01:15.781Z,-92
2022-11-22T09:03:45.308Z,-85
2022-11-22T09:11:54.032Z,-87
2022-11-22T09:14:24.549Z,-86
2022-11-22T09:16:54.301Z,-87
2022-11-22T09:19:22.913Z,-86
2022-11-22T09:21:51.527Z,-86
2022-11-22T09:24:20.140Z,-87
2022-11-22T09:26:48.680Z,-87
2022-11-22T09:29:17.201Z,-87
2022-11-22T09:31:47.133Z,-87
2022-11-22T09:34:15.645Z,-87
2022-11-22T09:36:44.627Z,-88
2022-11-22T09:39:13.953Z,-86
2022-11-22T09:42:12.596Z,-86
2022-11-22T09:45:08.403Z,-87
2022-11-22T09:47:51.669Z,-86
2022-11-22T09:50:32.041Z,-86
2022-11-22T09:53:09.799Z,-87
2022-11-22T09:55:46.436Z,-87
2022-11-22T09:58:30.765Z,-87
2022-11-22T10:01:11.357Z,-87
2022-11-22T10:03:50.249Z,-87
2022-11-22T10:06:25.887Z,-85
2022-11-22T10:09:08.457Z,-86
2022-11-22T10:11:46.548Z,-87
2022-11-22T10:14:31.495Z,-86
2022-11-22T10:17:14.701Z,-87
2022-11-22T10:19:54.094Z,-86
2022-11-22T10:22:22.963Z,-86
2022-11-22T10:24:51.793Z,-87
2022-11-22T10:27:20.387Z,-87
2022-11-22T10:30:01.357Z,-87
2022-11-22T10:32:39.618Z,-87
2022-11-22T10:35:36.245Z,-86
2022-11-22T10:38:34.460Z,-87
2022-11-22T10:41:16.636Z,-87
2022-11-22T10:43:59.620Z,-86
2022-11-22T10:46:43.211Z,-86
2022-11-22T10:49:29.233Z,-86
2022-11-22T10:52:10.702Z,-86
2022-11-22T10:54:53.715Z,-87
2022-11-22T10:57:35.102Z,-85
2022-11-22T11:00:21.885Z,-85
2022-11-22T11:03:14.259Z,-85
2022-11-22T11:06:21.014Z,-85
2022-11-22T11:11:38.082Z,-86
2022-11-22T11:14:18.655Z,-86
2022-11-22T11:16:50.812Z,-86
2022-11-22T11:19:22.548Z,-86
2022-11-22T11:22:00.927Z,-87
2022-11-22T11:24:32.961Z,-86
2022-11-22T11:27:02.455Z,-86
2022-11-22T11:29:45.899Z,-85
2022-11-22T11:32:17.260Z,-87
2022-11-22T11:34:56.096Z,-85
2022-11-22T11:37:32.907Z,-85
2022-11-22T11:40:03.016Z,-85
2022-11-22T11:42:34.619Z,-85
2022-11-22T11:45:29.281Z,-87
2022-11-22T11:47:58.177Z,-86
2022-11-22T11:50:30.215Z,-85
2022-11-22T11:53:06.935Z,-86
2022-11-22T11:55:38.825Z,-85
2022-11-22T11:58:22.136Z,-86
2022-11-22T12:00:50.827Z,-85
2022-11-22T12:03:21.690Z,-85
2022-11-22T12:06:13.586Z,-85
2022-11-22T12:08:42.831Z,-84
2022-11-22T12:11:21.860Z,-84
2022-11-22T12:14:19.183Z,-84
2022-11-22T12:16:51.012Z,-84
2022-11-22T12:19:33.650Z,-84
2022-11-22T12:22:29.378Z,-85
2022-11-22T12:25:35.014Z,-84
2022-11-22T12:28:19.232Z,-85
2022-11-22T12:30:56.506Z,-85
2022-11-22T12:33:32.658Z,-85
2022-11-22T12:36:03.850Z,-85
2022-11-22T12:38:40.187Z,-83
2022-11-22T12:41:14.645Z,-83
2022-11-22T12:43:50.882Z,-84
2022-11-22T12:46:26.742Z,-84
2022-11-22T12:49:00.949Z,-83
2022-11-22T12:51:41.315Z,-84
2022-11-22T12:54:18.567Z,-84
2022-11-22T12:56:52.953Z,-83
2022-11-22T12:59:37.494Z,-84
2022-11-22T13:02:23.232Z,-83
2022-11-22T13:05:00.299Z,-84
2022-11-22T13:07:50.304Z,-84
2022-11-22T13:10:38.675Z,-84
2022-11-22T13:13:25.529Z,-84
2022-11-22T13:16:01.380Z,-84
2022-11-22T13:18:36.324Z,-84
2022-11-22T13:21:16.504Z,-84
2022-11-22T13:24:19.739Z,-83
2022-11-22T13:27:02.196Z,-85
2022-11-22T13:29:35.717Z,-84
2022-11-22T13:32:17.756Z,-84
2022-11-22T13:35:06.937Z,-84
2022-11-22T13:37:40.145Z,-84
2022-11-22T13:40:26.189Z,-83
2022-11-22T13:43:51.443Z,-83
2022-11-22T13:46:57.314Z,-84
2022-11-22T13:49:48.246Z,-84
2022-11-22T13:52:52.565Z,-84
2022-11-22T13:55:41.579Z,-84
2022-11-22T13:58:55.689Z,-84
2022-11-22T14:01:58.124Z,-84
2022-11-22T14:04:41.989Z,-83
2022-11-22T14:07:36.174Z,-84
2022-11-22T14:10:21.907Z,-84
2022-11-22T14:13:24.989Z,-84
2022-11-22T14:16:07.494Z,-84
2022-11-22T14:18:57.754Z,-84
2022-11-22T14:21:56.708Z,-84
2022-11-22T14:24:43.690Z,-84
2022-11-22T14:27:31.636Z,-84
2022-11-22T14:30:14.126Z,-84
2022-11-22T14:32:52.522Z,-83
2022-11-22T14:35:32.582Z,-84
2022-11-22T14:38:41.215Z,-83
2022-11-22T14:41:44.837Z,-85
2022-11-22T14:44:26.768Z,-84
2022-11-22T14:47:03.617Z,-84
2022-11-22T14:49:43.621Z,-84
2022-11-22T14:52:23.851Z,-83
2022-11-22T14:54:59.387Z,-83
2022-11-22T14:57:32.148Z,-83
2022-11-22T15:00:19.029Z,-83
2022-11-22T15:03:41.240Z,-83
2022-11-22T15:09:16.119Z,-83
2022-11-22T15:09:58.146Z,-83
2022-11-22T15:12:57.020Z,-84
2022-11-22T15:57:35.576Z,-82
2022-11-22T16:00:11.248Z,-82
2022-11-22T16:02:50.101Z,-82
2022-11-22T16:06:07.806Z,-83
2022-11-22T16:08:18.674Z,-82
2022-11-22T16:10:52.142Z,-82
2022-11-22T16:13:34.097Z,-84
2022-11-22T16:16:22.555Z,-82
2022-11-22T16:18:53.190Z,-82
2022-11-22T16:21:27.770Z,-82
2022-11-22T16:24:19.520Z,-82
2022-11-22T16:26:59.502Z,-82
2022-11-22T16:29:33.281Z,-83
2022-11-22T16:32:11.183Z,-82
2022-11-22T16:34:42.938Z,-81
2022-11-22T16:37:27.855Z,-82
2022-11-22T16:39:57.633Z,-81
2022-11-22T16:42:27.281Z,-81
2022-11-22T16:45:03.560Z,-82
2022-11-22T16:47:32.652Z,-83
2022-11-22T16:50:01.160Z,-83
2022-11-22T16:52:29.656Z,-83
2022-11-22T16:54:58.883Z,-82
2022-11-22T16:57:27.413Z,-83
2022-11-22T16:59:57.376Z,-83
2022-11-22T17:02:28.067Z,-83
2022-11-22T17:04:56.739Z,-84
2022-11-22T17:07:25.347Z,-83
2022-11-22T17:09:55.874Z,-82
2022-11-22T17:12:33.254Z,-83
2022-11-22T17:15:03.868Z,-83
2022-11-22T17:17:32.360Z,-83
2022-11-22T17:20:00.836Z,-83
2022-11-22T17:22:29.432Z,-83
2022-11-22T17:24:58.871Z,-83
2022-11-22T17:27:27.357Z,-83
2022-11-22T17:29:55.983Z,-83
2022-11-22T17:32:25.887Z,-83
2022-11-22T17:34:55.352Z,-84
2022-11-22T17:37:23.805Z,-83
2022-11-22T17:39:52.985Z,-83
2022-11-22T17:42:21.551Z,-83
2022-11-22T17:44:50.884Z,-83
2022-11-22T17:47:19.359Z,-83
2022-11-22T17:49:49.759Z,-83
2022-11-22T17:52:18.247Z,-83
2022-11-22T17:54:46.721Z,-83
2022-11-22T17:57:15.240Z,-83
2022-11-22T17:59:44.984Z,-83
2022-11-22T18:02:13.502Z,-83
2022-11-22T18:04:44.517Z,-83
2022-11-22T18:07:14.473Z,-83
2022-11-22T18:09:42.992Z,-83
2022-11-22T18:12:11.413Z,-83
2022-11-22T18:14:39.894Z,-83
2022-11-22T18:17:08.373Z,-83
2022-11-22T18:19:36.914Z,-83
2022-11-22T18:22:05.419Z,-84
2022-11-22T18:24:35.336Z,-85
2022-11-22T18:27:04.482Z,-84
2022-11-22T18:29:42.120Z,-83
2022-11-22T18:32:11.699Z,-84
2022-11-22T18:34:41.514Z,-83
2022-11-22T18:37:10.058Z,-83
2022-11-22T18:39:40.684Z,-83
2022-11-22T18:42:14.727Z,-83
2022-11-22T18:44:43.372Z,-84
2022-11-22T18:47:11.919Z,-83
2022-11-22T18:49:40.493Z,-84
2022-11-22T18:52:11.887Z,-84
2022-11-22T18:54:44.838Z,-84
2022-11-22T18:57:13.288Z,-84
2022-11-22T18:59:41.820Z,-84
2022-11-22T19:02:10.338Z,-84
2022-11-22T19:04:39.101Z,-84
2022-11-22T19:07:07.589Z,-84
2022-11-22T19:09:36.228Z,-83
2022-11-22T19:12:06.885Z,-83
2022-11-22T19:14:35.373Z,-83
2022-11-22T19:17:03.846Z,-83
2022-11-22T19:19:32.875Z,-83
2022-11-22T19:22:02.197Z,-84
2022-11-22T19:24:31.483Z,-84
2022-11-22T19:27:00.176Z,-85
2022-11-22T19:29:30.682Z,-82
2022-11-22T19:31:59.457Z,-82
2022-11-22T19:34:29.820Z,-84
2022-11-22T19:37:00.349Z,-82
2022-11-22T19:39:29.186Z,-83
2022-11-22T19:41:57.816Z,-83
2022-11-22T19:44:26.376Z,-83
2022-11-22T19:46:56.236Z,-83
2022-11-22T19:49:24.734Z,-83
2022-11-22T19:51:53.280Z,-84
2022-11-22T19:54:21.912Z,-84
2022-11-22T19:56:50.474Z,-84
2022-11-22T19:59:18.928Z,-83
2022-11-22T20:01:47.433Z,-83
2022-11-22T20:04:17.466Z,-84
2022-11-22T20:06:49.934Z,-83
2022-11-22T20:09:19.093Z,-84
2022-11-22T20:11:47.719Z,-84
2022-11-22T20:14:16.465Z,-84
2022-11-22T20:16:45.179Z,-84
2022-11-22T20:19:15.336Z,-83
2022-11-22T20:21:46.103Z,-85
2022-11-22T20:24:16.316Z,-84
2022-11-22T20:26:45.105Z,-83
2022-11-22T20:29:15.289Z,-83
2022-11-22T20:31:44.110Z,-84
2022-11-22T20:34:13.977Z,-83
2022-11-22T20:36:44.301Z,-84
2022-11-22T20:39:13.068Z,-83
2022-11-22T20:41:42.029Z,-84
2022-11-22T20:44:14.290Z,-83
2022-11-22T20:46:46.298Z,-84
2022-11-22T20:49:15.012Z,-83
2022-11-22T20:51:45.187Z,-84
2022-11-22T20:54:14.157Z,-82
2022-11-22T20:56:44.121Z,-85
2022-11-22T20:59:13.173Z,-84
2022-11-22T21:01:44.474Z,-84
2022-11-22T21:04:19.373Z,-83
2022-11-22T21:06:59.616Z,-83
2022-11-22T21:09:29.101Z,-85
2022-11-22T21:12:04.361Z,-84
2022-11-22T21:14:34.375Z,-85
2022-11-22T21:17:22.638Z,-84
2022-11-22T21:19:51.864Z,-84
2022-11-22T21:22:21.764Z,-84
2022-11-22T21:24:50.259Z,-84
2022-11-22T21:27:18.785Z,-84
2022-11-22T21:29:47.295Z,-84
2022-11-22T21:32:16.401Z,-84
2022-11-22T21:34:44.852Z,-84
2022-11-22T21:37:13.377Z,-84
2022-11-22T21:39:43.294Z,-85
2022-11-22T21:42:12.075Z,-84
2022-11-22T21:44:40.542Z,-84
2022-11-22T21:47:09.055Z,-84
2022-11-22T21:49:37.597Z,-84
2022-11-22T21:52:06.400Z,-84
2022-11-22T21:54:35.043Z,-84
2022-11-22T21:57:05.043Z,-85
2022-11-22T21:59:33.766Z,-84
2022-11-22T22:02:02.672Z,-84
2022-11-22T22:04:31.189Z,-84
2022-11-22T22:06:59.788Z,-84
2022-11-22T22:09:28.354Z,-84
2022-11-22T22:11:57.005Z,-84
2022-11-22T22:14:27.936Z,-83
2022-11-22T22:16:56.409Z,-84
2022-11-22T22:19:24.911Z,-84
2022-11-22T22:21:53.455Z,-84
2022-11-22T22:24:21.990Z,-83
2022-11-22T22:26:50.723Z,-83
2022-11-22T22:29:19.134Z,-83
2022-11-22T22:31:49.140Z,-82
2022-11-22T22:34:18.629Z,-82
2022-11-22T22:36:47.207Z,-83
2022-11-22T22:39:15.705Z,-83
2022-11-22T22:41:44.216Z,-83
2022-11-22T22:44:13.829Z,-85
2022-11-22T22:46:42.591Z,-83
2022-11-22T22:49:12.615Z,-82
2022-11-22T22:51:41.166Z,-83
2022-11-22T22:54:11.471Z,-83
2022-11-22T22:56:41.609Z,-83
2022-11-22T22:59:10.397Z,-83
2022-11-22T23:01:39.394Z,-83
2022-11-22T23:04:09.149Z,-83
2022-11-22T23:06:40.963Z,-82
2022-11-22T23:09:13.072Z,-83
2022-11-22T23:11:59.382Z,-83
2022-11-22T23:14:30.857Z,-84
2022-11-22T23:17:01.248Z,-83
2022-11-22T23:19:30.389Z,-84
2022-11-22T23:22:00.620Z,-83
2022-11-22T23:24:32.995Z,-84
2022-11-22T23:27:02.190Z,-85
2022-11-22T23:29:31.032Z,-84
2022-11-22T23:31:59.723Z,-84
2022-11-22T23:34:28.435Z,-84
2022-11-22T23:36:56.888Z,-84
2022-11-22T23:39:26.909Z,-84
2022-11-22T23:41:55.451Z,-84
2022-11-22T23:44:23.924Z,-84
2022-11-22T23:46:52.402Z,-84
2022-11-22T23:49:20.930Z,-84
2022-11-22T23:51:50.392Z,-84
2022-11-22T23:54:18.990Z,-83
2022-11-22T23:56:48.982Z,-84
2022-11-22T23:59:18.461Z,-84
